Time;durP1;ratioP1;P1;durP2;ratioP2;P2;SDS_P1;SDS_P2;PMS_P1;PMS_P2;Temp;Humidity;BMP_temperature;BMP_pressure;BME280_temperature;BME280_humidity;BME280_pressure;Samples;Min_cycle;Max_cycle;Signal;HPM_P1;HPM_P2
2021/04/13 00:02:17;;;;;;;5.80;3.90;;;;;;;2.52;91.21;101574.29;636752;225;24845;-74
2021/04/13 00:04:44;;;;;;;4.00;3.60;;;;;;;2.28;90.24;101564.55;632324;224;24813;-74
2021/04/13 00:07:12;;;;;;;3.50;3.20;;;;;;;2.06;90.44;101570.09;620856;229;24887;-75
2021/04/13 00:09:40;;;;;;;3.53;3.17;;;;;;;1.97;91.42;101578.11;633703;225;24860;-74
2021/04/13 00:12:09;;;;;;;4.63;3.60;;;;;;;2.18;91.77;101581.18;638054;225;27449;-75
2021/04/13 00:14:37;;;;;;;7.05;5.25;;;;;;;2.60;90.03;101567.59;632100;225;32877;-74
2021/04/13 00:17:05;;;;;;;5.43;4.60;;;;;;;2.33;91.31;101574.62;633516;225;23728;-73
2021/04/13 00:19:35;;;;;;;5.33;4.83;;;;;;;2.12;91.80;101583.99;617869;229;26060;-74
2021/04/13 00:22:03;;;;;;;5.00;4.50;;;;;;;2.50;90.25;101580.39;608978;229;32929;-74
2021/04/13 00:24:31;;;;;;;5.20;4.70;;;;;;;1.56;91.44;101577.91;635242;225;23737;-74
2021/04/13 00:26:59;;;;;;;5.03;4.53;;;;;;;2.20;91.40;101584.52;631492;225;32873;-74
2021/04/13 00:29:27;;;;;;;5.90;4.23;;;;;;;1.65;92.17;101575.44;637948;225;23713;-74
2021/04/13 00:31:56;;;;;;;5.17;4.17;;;;;;;1.78;92.87;101589.50;633994;225;29267;-74
2021/04/13 00:34:27;;;;;;;5.03;4.50;;;;;;;1.77;93.12;101591.67;635650;223;24845;-74
2021/04/13 00:36:53;;;;;;;6.20;4.20;;;;;;;1.68;93.69;101592.83;637588;225;24854;-74
2021/04/13 00:39:21;;;;;;;9.23;3.63;;;;;;;1.63;93.69;101595.17;638161;223;24877;-74
2021/04/13 00:41:49;;;;;;;5.80;4.43;;;;;;;1.77;94.01;101583.53;631376;221;24894;-76
2021/04/13 00:44:17;;;;;;;6.57;4.73;;;;;;;1.92;94.25;101599.27;630759;225;24867;-75
2021/04/13 00:46:45;;;;;;;5.60;4.92;;;;;;;2.33;92.48;101585.73;615004;230;32975;-74
2021/04/13 00:49:14;;;;;;;5.63;4.90;;;;;;;2.17;93.27;101591.50;614775;230;23726;-74
2021/04/13 00:51:42;;;;;;;5.80;5.20;;;;;;;2.41;93.04;101585.91;618391;229;33016;-74
2021/04/13 00:54:10;;;;;;;6.00;5.10;;;;;;;2.30;93.54;101583.29;620384;229;23704;-73
2021/04/13 00:56:38;;;;;;;6.73;4.67;;;;;;;2.41;93.62;101588.02;627037;228;24885;-73
2021/04/13 00:59:06;;;;;;;6.20;5.20;;;;;;;2.85;91.67;101586.27;621929;228;32796;-73
2021/04/13 01:01:35;;;;;;;5.60;4.90;;;;;;;2.66;91.90;101573.75;638272;225;26902;-74
2021/04/13 01:04:04;;;;;;;5.00;4.20;;;;;;;2.63;92.22;101579.02;624474;230;24863;-74
2021/04/13 01:06:32;;;;;;;6.10;4.70;;;;;;;2.64;92.15;101576.38;614305;229;24867;-73
2021/04/13 01:09:03;;;;;;;4.40;3.93;;;;;;;2.73;92.06;101579.05;633197;225;24814;-74
2021/04/13 01:11:30;;;;;;;5.70;3.97;;;;;;;2.76;91.87;101580.20;637660;225;24870;-73
2021/04/13 01:14:00;;;;;;;4.10;3.67;;;;;;;2.82;91.87;101579.97;634310;225;24825;-74
2021/04/13 01:16:27;;;;;;;5.03;4.07;;;;;;;3.18;90.02;101565.20;629721;225;32837;-74
2021/04/13 01:18:55;;;;;;;4.60;3.90;;;;;;;2.82;90.79;101567.58;636245;225;24846;-73
2021/04/13 01:21:30;;;;;;;3.90;3.10;;;;;;;2.74;91.05;101580.71;621368;229;24816;-74
2021/04/13 01:23:58;;;;;;;4.20;3.70;;;;;;;2.74;91.42;101579.43;614220;229;24883;-74
2021/04/13 01:26:22;;;;;;;3.80;3.13;;;;;;;2.90;91.71;101577.08;613958;229;24922;-74
2021/04/13 01:28:51;;;;;;;5.93;3.70;;;;;;;2.94;91.89;101578.16;613940;229;24923;-75
2021/04/13 01:31:43;;;;;;;5.57;3.50;;;;;;;2.87;91.92;101578.04;613839;230;24825;-74
2021/04/13 01:33:50;;;;;;;5.00;3.47;;;;;;;3.04;92.06;101586.80;619528;226;24901;-74
2021/04/13 01:36:17;;;;;;;5.83;3.30;;;;;;;2.99;92.21;101584.42;613924;230;24875;-73
2021/04/13 01:38:58;;;;;;;4.63;3.37;;;;;;;2.96;91.59;101585.39;632320;225;24811;-74
2021/04/13 01:41:30;;;;;;;3.70;2.67;;;;;;;3.07;91.49;101578.50;638172;225;24856;-74
2021/04/13 01:43:56;;;;;;;4.33;3.27;;;;;;;2.84;91.04;101579.45;633481;225;24842;-73
2021/04/13 01:46:25;;;;;;;4.07;3.67;;;;;;;2.72;92.08;101586.81;636808;225;24856;-74
2021/04/13 01:48:52;;;;;;;6.20;3.50;;;;;;;2.61;92.86;101593.20;614757;229;24903;-73
2021/04/13 01:51:20;;;;;;;4.70;3.47;;;;;;;2.39;93.06;101594.91;625838;228;24942;-74
2021/04/13 01:53:50;;;;;;;4.60;3.67;;;;;;;1.98;96.02;101609.32;629609;227;24865;-73
2021/04/13 01:56:16;;;;;;;2.90;2.40;;;;;;;1.99;97.34;101618.69;622186;230;24913;-74
2021/04/13 01:58:45;;;;;;;3.70;2.60;;;;;;;1.59;99.25;101618.80;615683;230;25892;-74
2021/04/13 02:01:15;;;;;;;3.13;2.80;;;;;;;1.69;100.00;101620.59;617584;230;24900;-74
2021/04/13 02:03:42;;;;;;;4.35;2.90;;;;;;;1.93;100.00;101619.73;630439;225;33094;-75
2021/04/13 02:06:11;;;;;;;5.55;3.30;;;;;;;2.15;99.82;101618.52;619466;229;33380;-76
2021/04/13 02:08:39;;;;;;;6.47;3.80;;;;;;;2.17;99.84;101616.72;616041;229;23728;-76
2021/04/13 02:11:08;;;;;;;4.43;2.83;;;;;;;2.37;98.59;101612.95;633391;225;24819;-76
2021/04/13 02:13:35;;;;;;;4.57;2.80;;;;;;;2.59;98.04;101614.70;620273;229;24849;-76
2021/04/13 02:16:03;;;;;;;4.17;2.63;;;;;;;2.58;97.87;101615.61;634438;225;24896;-78
2021/04/13 02:18:34;;;;;;;3.40;2.80;;;;;;;2.63;97.50;101617.53;636179;225;24859;-77
2021/04/13 02:21:03;;;;;;;3.90;3.40;;;;;;;2.67;97.20;101622.93;633258;225;32855;-76
2021/04/13 02:23:31;;;;;;;5.03;3.37;;;;;;;2.56;98.36;101618.69;634185;222;23731;-76
2021/04/13 02:26:00;;;;;;;3.60;3.30;;;;;;;2.49;99.69;101623.20;619535;229;24848;-76
2021/04/13 02:28:28;;;;;;;6.57;3.50;;;;;;;2.52;99.78;101624.81;618734;229;24834;-77
2021/04/13 02:30:55;;;;;;;6.93;4.80;;;;;;;2.76;95.80;101617.45;631684;225;25146;-77
2021/04/13 02:33:28;;;;;;;6.08;5.47;;;;;;;3.22;89.79;101594.56;612109;229;32940;-76
2021/04/13 02:35:56;;;;;;;6.73;5.37;;;;;;;3.46;87.26;101580.30;618546;229;26896;-76
2021/04/13 02:38:25;;;;;;;7.00;4.77;;;;;;;3.65;86.61;101577.75;614262;229;24854;-76
2021/04/13 02:40:57;;;;;;;5.27;3.30;;;;;;;3.61;86.02;101574.95;618333;230;24847;-75
2021/04/13 02:43:24;;;;;;;5.90;3.67;;;;;;;3.44;85.68;101576.97;618874;229;24847;-76
2021/04/13 02:45:52;;;;;;;3.40;3.10;;;;;;;3.27;87.08;101584.95;618446;229;24849;-74
2021/04/13 02:48:20;;;;;;;4.10;3.43;;;;;;;3.26;87.42;101595.30;624337;228;24899;-73
2021/04/13 02:50:48;;;;;;;4.85;4.35;;;;;;;3.72;86.54;101595.45;621001;228;32861;-74
2021/04/13 02:53:16;;;;;;;4.27;3.87;;;;;;;3.47;86.41;101591.80;627069;228;23703;-76
2021/04/13 02:55:49;;;;;;;6.87;4.80;;;;;;;3.95;84.98;101588.00;624412;225;32918;-75
2021/04/13 02:58:17;;;;;;;5.30;4.80;;;;;;;4.11;84.25;101590.27;616850;229;32774;-76
2021/04/13 03:00:46;;;;;;;4.50;4.10;;;;;;;3.72;85.23;101594.61;636312;226;23722;-74
2021/04/13 03:03:14;;;;;;;3.67;3.37;;;;;;;3.47;86.23;101599.52;627115;225;24807;-76
2021/04/13 03:05:42;;;;;;;4.03;3.63;;;;;;;3.48;86.21;101599.90;627039;225;24863;-75
2021/04/13 03:08:10;;;;;;;3.20;2.90;;;;;;;3.28;86.29;101598.64;618709;229;28046;-73
2021/04/13 03:10:38;;;;;;;4.10;3.30;;;;;;;3.19;86.82;101602.41;626990;228;24874;-73
2021/04/13 03:13:06;;;;;;;4.27;3.13;;;;;;;3.15;87.42;101606.47;637298;225;24843;-75
2021/04/13 03:15:34;;;;;;;3.50;3.10;;;;;;;3.24;87.17;101608.67;624323;229;25918;-74
2021/04/13 03:18:02;;;;;;;4.63;3.30;;;;;;;3.25;87.38;101605.20;619224;230;24861;-73
2021/04/13 03:20:30;;;;;;;4.10;3.70;;;;;;;3.19;87.31;101610.58;614420;228;24858;-73
2021/04/13 03:22:58;;;;;;;3.93;3.53;;;;;;;3.17;87.25;101613.66;638226;221;24831;-73
2021/04/13 03:25:27;;;;;;;5.83;3.80;;;;;;;3.08;87.71;101614.86;634963;225;24848;-73
2021/04/13 03:27:55;;;;;;;5.63;3.67;;;;;;;3.18;87.24;101607.62;630151;225;27047;-73
2021/04/13 03:30:23;;;;;;;5.78;4.20;;;;;;;3.38;86.57;101614.07;613062;229;32888;-73
2021/04/13 03:32:52;;;;;;;5.83;4.37;;;;;;;3.11;87.34;101617.78;632732;225;23692;-73
2021/04/13 03:35:20;;;;;;;4.13;3.53;;;;;;;3.22;87.52;101626.70;633846;225;24819;-73
2021/04/13 03:37:48;;;;;;;5.60;4.00;;;;;;;3.15;88.00;101633.45;635028;225;24848;-73
2021/04/13 03:40:16;;;;;;;4.00;3.60;;;;;;;3.16;88.64;101632.55;633767;225;25057;-74
2021/04/13 03:42:44;;;;;;;5.30;4.80;;;;;;;3.45;88.16;101637.33;614356;229;33008;-76
2021/04/13 03:45:13;;;;;;;4.60;4.20;;;;;;;3.11;88.34;101637.06;620173;229;23713;-77
2021/04/13 03:47:41;;;;;;;4.63;4.23;;;;;;;3.18;88.77;101642.32;638409;225;24850;-75
2021/04/13 03:50:12;;;;;;;6.53;4.37;;;;;;;3.13;88.55;101645.54;638088;225;24910;-75
2021/04/13 03:52:40;;;;;;;7.00;3.90;;;;;;;3.12;88.61;101638.73;616800;230;24834;-75
2021/04/13 03:55:14;;;;;;;6.27;3.70;;;;;;;3.06;88.91;101643.65;631549;226;24847;-75
2021/04/13 03:57:42;;;;;;;5.93;3.50;;;;;;;3.00;89.11;101642.63;624940;229;28033;-76
2021/04/13 04:00:14;;;;;;;7.30;3.70;;;;;;;3.11;89.40;101647.34;624502;229;24860;-77
2021/04/13 04:02:42;;;;;;;5.03;4.17;;;;;;;2.96;89.74;101649.63;619660;230;28056;-75
2021/04/13 04:05:12;;;;;;;6.50;4.53;;;;;;;3.08;89.43;101644.87;624662;228;24891;-76
2021/04/13 04:10:26;;;;;;;5.40;3.60;;;;;;;3.04;89.19;101647.18;649861;217;25452;-74
2021/04/13 04:12:59;;;;;;;4.30;3.87;;;;;;;3.20;89.12;101640.07;638225;221;24892;-74
2021/04/13 04:15:27;;;;;;;5.50;4.00;;;;;;;3.37;88.51;101647.53;638754;223;24829;-75
2021/04/13 04:17:55;;;;;;;5.17;3.63;;;;;;;3.29;87.20;101632.44;657394;218;26943;-74
2021/04/13 04:20:32;;;;;;;5.43;4.20;;;;;;;3.15;87.45;101637.31;641891;223;25054;-75
2021/04/13 04:23:00;;;;;;;5.20;4.63;;;;;;;3.17;87.28;101642.77;649860;218;24733;-74
2021/04/13 04:25:31;;;;;;;5.43;3.97;;;;;;;3.09;88.72;101653.80;650660;218;24712;-75
2021/04/13 04:27:59;;;;;;;7.03;4.47;;;;;;;3.05;88.86;101656.56;648648;218;25986;-75
2021/04/13 04:30:27;;;;;;;6.70;4.47;;;;;;;2.98;89.58;101655.53;659138;218;24844;-76
2021/04/13 04:32:55;;;;;;;5.47;4.80;;;;;;;3.06;89.28;101656.50;650289;218;24843;-75
2021/04/13 04:35:30;;;;;;;8.80;6.17;;;;;;;3.28;89.05;101661.63;638509;222;24785;-76
2021/04/13 04:38:01;;;;;;;9.07;7.87;;;;;;;3.28;89.57;101661.63;644336;219;25776;-74
2021/04/13 04:40:51;;;;;;;12.37;8.50;;;;;;;3.22;89.81;101665.70;638294;223;24789;-75
2021/04/13 04:43:21;;;;;;;11.43;8.13;;;;;;;3.11;87.26;101658.91;644309;218;24771;-75
2021/04/13 04:45:48;;;;;;;11.23;7.70;;;;;;;3.05;89.26;101656.56;654936;218;24744;-74
2021/04/13 04:48:25;;;;;;;13.10;9.00;;;;;;;3.02;89.00;101665.69;649775;218;24783;-74
2021/04/13 04:50:53;;;;;;;14.13;8.80;;;;;;;3.15;88.02;101665.58;652921;218;24797;-75
2021/04/13 04:53:21;;;;;;;11.70;8.17;;;;;;;3.09;87.06;101658.10;652628;218;24769;-75
2021/04/13 04:55:50;;;;;;;9.50;8.20;;;;;;;2.99;88.22;101660.23;643724;223;24816;-76
2021/04/13 04:58:18;;;;;;;11.20;8.30;;;;;;;3.07;88.29;101671.47;653760;219;24779;-74
2021/04/13 05:00:46;;;;;;;11.13;8.20;;;;;;;2.98;88.06;101664.98;658203;218;24764;-74
2021/04/13 05:03:14;;;;;;;12.70;7.27;;;;;;;3.10;87.61;101670.92;658218;218;24789;-74
2021/04/13 05:05:42;;;;;;;11.83;8.50;;;;;;;2.99;87.62;101673.08;657066;218;24783;-74
2021/04/13 05:08:10;;;;;;;10.40;7.53;;;;;;;2.77;89.46;101685.91;642897;223;25893;-74
2021/04/13 05:10:38;;;;;;;11.27;7.87;;;;;;;2.71;90.64;101696.42;655121;218;24756;-74
2021/04/13 05:13:06;;;;;;;11.53;8.53;;;;;;;2.63;91.37;101699.27;655444;218;24732;-74
2021/04/13 05:15:34;;;;;;;10.50;7.77;;;;;;;2.60;90.95;101699.84;654221;218;24780;-75
2021/04/13 05:18:01;;;;;;;10.23;7.43;;;;;;;2.59;90.92;101696.88;647313;218;24805;-74
2021/04/13 05:20:29;;;;;;;11.30;8.50;;;;;;;2.65;90.47;101697.47;657637;216;24789;-74
2021/04/13 05:22:57;;;;;;;9.80;7.13;;;;;;;2.59;90.36;101700.73;650832;218;24794;-74
2021/04/13 05:25:25;;;;;;;14.70;9.10;;;;;;;2.59;90.63;101703.30;646241;221;24731;-74
2021/04/13 05:27:53;;;;;;;10.60;7.50;;;;;;;2.51;90.39;101709.99;658261;218;26989;-74
2021/04/13 05:30:22;;;;;;;12.15;9.18;;;;;;;2.62;90.16;101707.87;644128;218;32611;-74
2021/04/13 05:32:50;;;;;;;13.43;7.80;;;;;;;2.59;89.99;101706.70;655919;218;23687;-74
2021/04/13 05:35:18;;;;;;;13.03;8.60;;;;;;;2.61;89.62;101711.78;655025;218;24777;-74
2021/04/13 05:37:45;;;;;;;10.53;7.93;;;;;;;2.60;90.06;101708.83;653233;218;24764;-74
2021/04/13 05:40:15;;;;;;;11.35;9.23;;;;;;;2.78;89.02;101711.14;647578;218;32565;-75
2021/04/13 05:42:44;;;;;;;11.10;8.33;;;;;;;2.62;88.77;101707.03;653065;218;23646;-74
2021/04/13 05:45:11;;;;;;;10.47;8.00;;;;;;;2.58;89.67;101720.44;655282;218;27236;-74
2021/04/13 05:47:39;;;;;;;11.50;8.10;;;;;;;2.61;88.97;101719.04;651316;218;24764;-75
2021/04/13 05:50:08;;;;;;;11.90;7.40;;;;;;;2.63;88.92;101722.83;648239;218;24800;-74
2021/04/13 05:52:36;;;;;;;12.68;9.25;;;;;;;2.74;88.84;101725.84;647151;218;32580;-74
2021/04/13 05:55:05;;;;;;;14.10;8.90;;;;;;;2.70;88.10;101717.87;643621;222;23711;-74
2021/04/13 05:57:33;;;;;;;11.57;9.03;;;;;;;2.81;88.27;101723.86;642800;223;24847;-74
2021/04/13 06:00:02;;;;;;;11.90;8.13;;;;;;;2.76;88.15;101724.05;638419;223;24833;-74
2021/04/13 06:02:30;;;;;;;13.07;8.70;;;;;;;2.72;88.28;101728.08;651417;219;24780;-74
2021/04/13 06:04:58;;;;;;;14.63;9.23;;;;;;;2.78;88.16;101731.24;654161;218;24767;-76
2021/04/13 06:07:26;;;;;;;13.13;9.00;;;;;;;2.92;87.60;101730.27;648143;221;25075;-75
2021/04/13 06:09:53;;;;;;;12.70;9.00;;;;;;;2.91;87.47;101727.77;639869;223;24824;-74
2021/04/13 06:12:21;;;;;;;13.10;9.50;;;;;;;2.94;86.83;101731.50;638589;223;24795;-74
2021/04/13 06:14:50;;;;;;;15.37;9.70;;;;;;;2.95;86.70;101723.72;643794;223;24847;-75
2021/04/13 06:17:17;;;;;;;14.60;10.23;;;;;;;3.23;87.01;101733.77;658655;218;24763;-74
2021/04/13 06:19:45;;;;;;;14.50;9.33;;;;;;;3.39;85.98;101731.45;654665;218;25116;-74
2021/04/13 06:22:13;;;;;;;14.80;10.10;;;;;;;3.54;86.54;101738.99;636507;223;24789;-74
2021/04/13 06:24:41;;;;;;;13.70;10.13;;;;;;;3.94;86.00;101736.03;655637;218;24828;-75
2021/04/13 06:27:09;;;;;;;16.70;10.40;;;;;;;3.96;85.86;101731.68;639834;222;24903;-74
2021/04/13 06:29:38;;;;;;;17.20;10.87;;;;;;;4.00;84.80;101730.19;654912;219;24766;-74
2021/04/13 06:32:07;;;;;;;18.07;11.90;;;;;;;4.15;85.06;101740.28;655400;216;24798;-74
2021/04/13 06:34:35;;;;;;;17.63;11.40;;;;;;;4.26;84.07;101733.38;651975;217;25027;-74
2021/04/13 06:37:03;;;;;;;17.23;12.50;;;;;;;4.33;83.90;101730.45;640817;222;24820;-74
2021/04/13 06:39:31;;;;;;;19.40;13.50;;;;;;;4.40;81.63;101726.72;635175;223;32757;-75
2021/04/13 06:42:04;;;;;;;17.27;12.47;;;;;;;4.57;82.54;101729.82;634604;223;23693;-74
2021/04/13 06:44:43;;;;;;;17.70;13.67;;;;;;;4.79;80.05;101730.15;635006;221;32828;-73
2021/04/13 06:47:14;;;;;;;17.97;12.80;;;;;;;4.77;81.49;101723.75;641349;222;27982;-74
2021/04/13 06:49:48;;;;;;;22.37;13.17;;;;;;;4.64;81.99;101736.80;640634;223;24861;-74
2021/04/13 06:52:19;;;;;;;19.67;12.93;;;;;;;4.65;81.62;101738.05;656411;219;24781;-74
2021/04/13 06:54:45;;;;;;;18.63;13.17;;;;;;;4.90;81.39;101733.88;654901;216;32312;-74
2021/04/13 06:57:20;;;;;;;17.27;12.40;;;;;;;4.73;80.90;101729.50;652411;218;24766;-74
2021/04/13 07:00:15;;;;;;;17.07;12.47;;;;;;;4.64;81.79;101735.06;647376;218;24773;-74
2021/04/13 07:02:47;;;;;;;25.53;13.50;;;;;;;4.67;81.52;101736.23;646209;218;24766;-74
2021/04/13 07:05:15;;;;;;;24.63;14.80;;;;;;;4.89;83.22;101751.54;640917;222;24619;-73
2021/04/13 07:07:44;;;;;;;20.03;13.13;;;;;;;4.97;82.42;101740.89;653147;218;24790;-74
2021/04/13 07:10:15;;;;;;;20.30;14.73;;;;;;;4.91;81.11;101728.27;652282;218;24776;-74
2021/04/13 07:12:42;;;;;;;19.50;13.50;;;;;;;5.03;79.49;101730.27;643385;223;25523;-74
2021/04/13 07:15:11;;;;;;;21.97;15.65;;;;;;;5.19;80.50;101732.96;643218;219;32572;-74
2021/04/13 07:17:40;;;;;;;23.40;16.17;;;;;;;5.12;80.43;101729.02;654116;218;23646;-73
2021/04/13 07:20:09;;;;;;;21.27;13.57;;;;;;;5.19;80.47;101731.22;641389;223;24804;-74
2021/04/13 07:22:37;;;;;;;18.63;12.83;;;;;;;5.25;79.87;101734.81;654543;218;24817;-74
2021/04/13 07:25:06;;;;;;;20.97;14.43;;;;;;;5.16;78.99;101728.79;650938;218;24788;-75
2021/04/13 07:27:35;;;;;;;20.70;14.13;;;;;;;5.40;80.59;101746.14;642322;222;24806;-75
2021/04/13 07:30:05;;;;;;;20.90;13.83;;;;;;;5.47;78.88;101735.05;641625;223;25918;-74
2021/04/13 07:32:32;;;;;;;19.83;14.40;;;;;;;5.39;78.80;101734.15;641872;223;24817;-74
2021/04/13 07:35:00;;;;;;;17.77;12.93;;;;;;;5.45;79.91;101743.33;632951;221;24853;-74
2021/04/13 07:37:29;;;;;;;15.47;11.77;;;;;;;5.55;77.20;101731.20;654813;218;24769;-74
2021/04/13 07:39:57;;;;;;;19.50;14.80;;;;;;;5.87;77.68;101737.79;641974;222;33144;-73
2021/04/13 07:42:25;;;;;;;18.40;15.00;;;;;;;5.84;76.81;101728.91;639725;222;32969;-74
2021/04/13 07:45:20;;;;;;;17.43;13.30;;;;;;;5.87;78.25;101734.75;638662;222;23755;-75
2021/04/13 07:48:24;;;;;;;19.40;13.47;;;;;;;5.92;76.97;101740.57;635664;222;25083;-74
2021/04/13 07:50:55;;;;;;;19.25;15.32;;;;;;;6.09;76.66;101741.45;635103;223;33001;-74
2021/04/13 07:53:25;;;;;;;16.73;13.47;;;;;;;5.93;76.70;101740.95;638713;223;23666;-74
2021/04/13 07:55:55;;;;;;;18.70;13.57;;;;;;;6.11;77.63;101746.91;640893;223;24853;-74
2021/04/13 07:58:29;;;;;;;16.67;12.80;;;;;;;6.18;76.95;101746.96;638490;223;24836;-75
2021/04/13 08:00:57;;;;;;;19.70;13.23;;;;;;;6.30;76.47;101744.66;641349;222;24807;-75
2021/04/13 08:03:25;;;;;;;17.73;12.03;;;;;;;6.20;73.74;101736.58;637741;223;24804;-74
2021/04/13 08:05:53;;;;;;;16.30;12.80;;;;;;;6.48;76.11;101736.80;640785;223;24802;-75
2021/04/13 08:08:23;;;;;;;17.37;12.57;;;;;;;6.43;75.10;101727.14;640883;223;24879;-74
2021/04/13 08:10:51;;;;;;;19.30;12.93;;;;;;;6.49;75.91;101738.47;640860;223;24833;-74
2021/04/13 08:13:28;;;;;;;19.70;13.70;;;;;;;6.62;74.57;101733.95;657465;218;24887;-74
2021/04/13 08:15:55;;;;;;;15.80;13.30;;;;;;;6.73;75.18;101734.17;647614;218;24784;-75
2021/04/13 08:18:30;;;;;;;17.00;12.57;;;;;;;6.76;72.93;101730.16;657339;218;24796;-73
2021/04/13 08:21:12;;;;;;;16.97;13.40;;;;;;;6.75;75.28;101737.05;644540;222;24788;-75
2021/04/13 08:23:40;;;;;;;15.60;12.00;;;;;;;6.66;73.65;101722.05;652681;219;24771;-74
2021/04/13 08:26:18;;;;;;;16.60;12.23;;;;;;;6.98;73.76;101729.34;646736;222;24623;-75
2021/04/13 08:28:45;;;;;;;20.30;13.77;;;;;;;6.50;73.38;101727.22;654747;217;24770;-75
2021/04/13 08:33:54;;;;;;;20.60;13.30;;;;;;;6.96;73.69;101724.72;654890;218;23694;-74
2021/04/13 08:36:22;;;;;;;17.87;14.33;;;;;;;7.36;75.07;101729.80;633825;223;32799;-75
2021/04/13 08:38:54;;;;;;;18.27;13.60;;;;;;;6.98;72.43;101721.59;640963;223;23678;-75
2021/04/13 08:41:25;;;;;;;17.00;11.97;;;;;;;7.28;70.63;101719.03;636703;223;24814;-75
2021/04/13 08:43:53;;;;;;;15.20;11.20;;;;;;;7.53;70.88;101717.64;640262;223;24786;-75
2021/04/13 08:46:26;;;;;;;17.90;12.03;;;;;;;7.57;69.78;101713.48;642446;223;24832;-74
2021/04/13 08:49:00;;;;;;;15.03;10.67;;;;;;;7.22;69.86;101707.75;659052;218;24784;-74
2021/04/13 08:51:34;;;;;;;13.80;10.27;;;;;;;7.55;69.09;101704.98;640177;223;27968;-74
2021/04/13 08:54:07;;;;;;;13.37;10.43;;;;;;;7.69;67.60;101693.36;640671;223;25004;-74
2021/04/13 08:56:35;;;;;;;15.55;11.90;;;;;;;7.82;68.95;101687.00;641978;218;32786;-74
2021/04/13 08:59:03;;;;;;;16.12;12.78;;;;;;;8.13;65.79;101688.58;633804;221;32854;-75
2021/04/13 09:01:34;;;;;;;15.33;11.63;;;;;;;7.22;69.72;101682.34;642436;223;23674;-75
2021/04/13 09:04:00;;;;;;;14.75;12.73;;;;;;;7.44;70.95;101694.41;630194;221;32155;-74
2021/04/13 09:06:31;;;;;;;16.60;12.83;;;;;;;7.20;69.74;101694.07;641248;223;23659;-74
2021/04/13 09:09:03;;;;;;;28.60;14.00;;;;;;;7.13;69.60;101701.33;644697;218;24792;-75
2021/04/13 09:11:31;;;;;;;16.60;13.07;;;;;;;6.96;72.02;101710.95;642606;223;27346;-74
2021/04/13 09:14:03;;;;;;;16.27;12.00;;;;;;;6.85;70.44;101707.66;638232;223;24804;-74
2021/04/13 09:16:32;;;;;;;18.98;13.90;;;;;;;7.25;68.72;101706.73;648980;218;32935;-75
2021/04/13 09:18:59;;;;;;;15.80;11.50;;;;;;;7.22;68.09;101701.74;638529;223;23703;-74
2021/04/13 09:21:37;;;;;;;16.10;12.17;;;;;;;7.09;68.93;101690.78;650595;218;25873;-74
2021/04/13 09:24:10;;;;;;;16.37;12.17;;;;;;;7.56;67.86;101704.05;655496;218;24749;-74
2021/04/13 09:26:42;;;;;;;21.93;14.07;;;;;;;8.41;70.34;101708.50;638051;223;24819;-75
2021/04/13 09:29:10;;;;;;;17.23;12.87;;;;;;;7.88;67.18;101693.12;640466;223;26937;-74
2021/04/13 09:31:44;;;;;;;15.33;10.90;;;;;;;7.64;66.03;101697.98;638985;223;24803;-74
2021/04/13 09:34:13;;;;;;;14.03;11.10;;;;;;;7.38;67.38;101693.47;641378;223;24800;-74
2021/04/13 09:36:53;;;;;;;17.90;12.70;;;;;;;7.19;68.18;101700.17;654548;217;24772;-74
2021/04/13 09:39:38;;;;;;;15.50;12.20;;;;;;;8.14;66.80;101692.83;641994;223;24898;-74
2021/04/13 09:42:14;;;;;;;15.00;11.40;;;;;;;8.59;65.81;101685.80;652774;218;24766;-74
2021/04/13 09:44:52;;;;;;;17.03;12.20;;;;;;;8.51;63.03;101671.17;639427;223;25971;-74
2021/04/13 09:47:25;;;;;;;12.47;10.10;;;;;;;8.86;60.81;101661.98;651565;218;24825;-74
2021/04/13 09:49:58;;;;;;;14.93;12.45;;;;;;;8.76;62.61;101659.63;648457;219;32677;-74
2021/04/13 09:52:31;;;;;;;17.00;12.00;;;;;;;8.87;62.45;101644.22;650899;219;23623;-74
2021/04/13 09:55:03;;;;;;;13.50;11.00;;;;;;;9.14;61.15;101642.86;650444;218;24757;-74
2021/04/13 09:57:41;;;;;;;15.60;11.90;;;;;;;9.12;61.62;101631.75;643440;223;24838;-74
2021/04/13 10:00:55;;;;;;;17.15;13.62;;;;;;;8.95;64.53;101646.77;641186;218;32884;-75
2021/04/13 10:03:36;;;;;;;14.00;12.40;;;;;;;8.52;61.72;101640.42;640566;219;32634;-75
2021/04/13 10:06:04;;;;;;;16.53;12.33;;;;;;;7.78;63.83;101644.55;642511;221;24639;-76
2021/04/13 10:08:32;;;;;;;13.37;10.17;;;;;;;7.88;61.70;101643.05;641263;222;24871;-75
2021/04/13 10:11:13;;;;;;;15.53;11.90;;;;;;;8.25;61.78;101633.41;652283;218;24804;-75
2021/04/13 10:13:58;;;;;;;15.50;11.75;;;;;;;9.30;57.81;101614.16;633541;222;32705;-75
2021/04/13 10:16:26;;;;;;;14.20;10.90;;;;;;;9.40;61.19;101618.25;653964;218;24779;-76
2021/04/13 10:19:19;;;;;;;14.07;10.37;;;;;;;9.43;59.89;101616.30;642075;222;24832;-75
2021/04/13 10:22:17;;;;;;;17.20;8.80;;;;;;;8.33;58.77;101608.33;650547;218;24787;-75
2021/04/13 10:24:48;;;;;;;11.50;9.78;;;;;;;8.13;58.39;101607.42;631462;223;32743;-78
2021/04/13 10:27:36;;;;;;;13.83;10.27;;;;;;;8.98;58.26;101598.56;651947;218;23633;-77
2021/04/13 10:30:15;;;;;;;12.00;9.13;;;;;;;9.56;60.20;101617.58;644731;221;25737;-75
2021/04/13 10:32:55;;;;;;;14.03;9.20;;;;;;;9.66;58.05;101593.11;651036;217;24995;-75
2021/04/13 10:35:54;;;;;;;9.53;8.53;;;;;;;9.17;58.17;101604.22;643280;223;24805;-75
2021/04/13 10:38:58;;;;;;;10.00;7.70;;;;;;;9.50;56.18;101591.56;643138;223;24803;-75
2021/04/13 10:41:51;;;;;;;11.50;9.33;;;;;;;8.84;59.91;101590.38;641386;223;24841;-76
2021/04/13 10:44:43;;;;;;;11.37;8.87;;;;;;;8.61;60.33;101591.42;652535;217;24762;-77
2021/04/13 10:47:22;;;;;;;11.50;9.50;;;;;;;9.39;60.71;101604.43;637226;223;32766;-76
2021/04/13 10:50:06;;;;;;;13.50;8.83;;;;;;;9.44;58.43;101581.61;653563;218;23690;-75
2021/04/13 10:52:47;;;;;;;15.13;9.30;;;;;;;10.11;58.29;101595.11;640080;222;24625;-76
2021/04/13 10:55:18;;;;;;;11.07;8.50;;;;;;;9.78;55.39;101580.58;638767;223;24852;-76
2021/04/13 10:58:13;;;;;;;10.90;8.77;;;;;;;9.91;58.77;101577.97;650187;218;24762;-76
2021/04/13 11:00:43;;;;;;;10.83;8.03;;;;;;;10.26;56.02;101582.00;640249;223;24789;-76
2021/04/13 11:03:22;;;;;;;8.90;6.67;;;;;;;9.89;56.09;101571.58;637870;223;24880;-76
2021/04/13 11:06:16;;;;;;;17.03;7.50;;;;;;;10.04;55.08;101561.88;650301;219;24754;-75
2021/04/13 11:08:52;;;;;;;9.03;7.27;;;;;;;10.02;56.95;101568.48;658267;218;23784;-75
2021/04/13 11:11:46;;;;;;;8.70;6.90;;;;;;;10.25;56.66;101560.83;645243;222;24725;-74
2021/04/13 11:14:39;;;;;;;7.83;6.87;;;;;;;9.08;55.17;101555.51;635364;223;24775;-75
2021/04/13 11:17:15;;;;;;;8.13;6.43;;;;;;;8.24;52.52;101561.77;650103;218;24748;-75
2021/04/13 11:19:49;;;;;;;6.93;5.57;;;;;;;7.85;53.75;101554.72;643303;221;24800;-75
2021/04/13 11:22:37;;;;;;;8.80;6.60;;;;;;;7.91;54.61;101549.64;641292;221;25103;-74
2021/04/13 11:25:15;;;;;;;9.83;6.00;;;;;;;9.37;55.21;101554.38;644555;223;24904;-75
2021/04/13 11:28:03;;;;;;;8.30;5.40;;;;;;;9.96;53.08;101542.08;652579;218;24748;-75
2021/04/13 11:31:03;;;;;;;7.43;5.87;;;;;;;10.54;53.85;101547.86;645198;222;24578;-75
2021/04/13 11:33:39;;;;;;;9.33;7.37;;;;;;;9.98;56.87;101544.92;651891;218;24749;-74
2021/04/13 11:36:10;;;;;;;9.50;7.10;;;;;;;9.14;57.32;101548.13;645143;222;24616;-74
2021/04/13 11:38:48;;;;;;;9.40;8.40;;;;;;;8.34;55.87;101551.70;645770;217;32529;-75
2021/04/13 11:41:23;;;;;;;8.70;7.30;;;;;;;8.05;56.40;101552.20;656372;218;23644;-75
2021/04/13 11:43:52;;;;;;;8.20;6.97;;;;;;;8.90;57.24;101552.37;656141;218;24753;-74
2021/04/13 11:46:22;;;;;;;8.50;7.60;;;;;;;9.87;57.73;101546.64;647653;218;32555;-75
2021/04/13 11:48:52;;;;;;;8.00;6.20;;;;;;;9.85;55.31;101548.02;653230;218;23657;-75
2021/04/13 11:51:21;;;;;;;10.40;6.30;;;;;;;9.85;52.90;101538.92;641523;223;24788;-75
2021/04/13 11:53:49;;;;;;;8.90;6.93;;;;;;;10.29;55.26;101537.59;636608;222;24866;-75